Latest Weather Observations for Wattamolla

IDN60801

Issued at 6:32 am EST Saturday 5 September 2015 (issued every 30 minutes, with the page automatically refreshed every 10 minutes)

About weather observations | Map of weather stations | Latest weather observations for NSW | Other Formats
Station Details ID: 066208 Name: WATTAMOLLA AWS Lat: -34.14 Lon: 151.12 Height: 44.0 m
Data from the previous 72 hours. | See also: Recent months for locations in New South Wales
Date/Time
EST
Temp
°C
App
Temp
°C
Dew
Point
Rel
Hum
%
Delta-T
°C
Wind Press
QNH
hPa
Press
MSL
hPa
Rain
since 9 am
mm
Dir
 
Spd
km/h
Gust
km/h
Spd
kts
Gust
kts
05/06:30am - - - - - NW 17 20 9 11 - - -
05/06:00am - - - - - NW 17 22 9 12 - - -
05/05:30am - - - - - NW 19 22 10 12 - - -
05/05:00am - - - - - NW 17 20 9 11 - - -
05/04:30am - - - - - NW 13 17 7 9 - - -
05/04:00am - - - - - NW 15 17 8 9 - - -
05/03:30am - - - - - NW 17 20 9 11 - - -
05/03:00am - - - - - NW 17 19 9 10 - - -
05/02:30am - - - - - NW 15 17 8 9 - - -
05/02:00am - - - - - NW 13 17 7 9 - - -
05/01:30am - - - - - NW 15 17 8 9 - - -
05/01:00am - - - - - NW 15 17 8 9 - - -
05/12:30am - - - - - NW 15 17 8 9 - - -
05/12:00am - - - - - NW 15 15 8 8 - - -
 
Date/Time
EST
Temp
°C
App
Temp
°C
Dew
Point
Rel
Hum
%
Delta-T
°C
Wind Press
QNH
hPa
Press
MSL
hPa
Rain
since 9 am
mm
Dir
 
Spd
km/h
Gust
km/h
Spd
kts
Gust
kts
04/11:30pm - - - - - NW 15 15 8 8 - - -
04/11:00pm - - - - - NW 11 13 6 7 - - -
04/10:30pm - - - - - NNW 9 13 5 7 - - -
04/10:00pm - - - - - NNW 7 9 4 5 - - -
04/09:30pm - - - - - E 9 11 5 6 - - -
04/09:00pm - - - - - SSW 7 13 4 7 - - -
04/08:30pm - - - - - SW 4 13 2 7 - - -
04/08:00pm - - - - - SSE 11 15 6 8 - - -
04/07:30pm - - - - - SE 13 17 7 9 - - -
04/07:00pm - - - - - SSE 13 15 7 8 - - -
04/06:30pm - - - - - S 13 19 7 10 - - -
04/06:00pm - - - - - S 15 22 8 12 - - -
04/05:30pm - - - - - S 17 26 9 14 - - -
04/05:00pm - - - - - S 19 26 10 14 - - -
04/04:30pm - - - - - S 20 28 11 15 - - -
04/04:00pm - - - - - S 28 33 15 18 - - -
04/03:30pm - - - - - S 30 37 16 20 - - -
04/03:00pm - - - - - S 35 46 19 25 - - -
04/02:30pm - - - - - S 37 44 20 24 - - -
04/02:00pm - - - - - S 41 48 22 26 - - -
04/01:30pm - - - - - S 41 48 22 26 - - -
04/01:00pm - - - - - S 46 56 25 30 - - -
04/12:30pm - - - - - S 46 54 25 29 - - -
04/12:00pm - - - - - S 43 56 23 30 - - -
04/11:30am - - - - - - - - - - - - -
04/11:00am - - - - - S 44 59 24 32 - - -
04/10:30am - - - - - S 48 59 26 32 - - -
04/10:00am - - - - - S 52 63 28 34 - - -
04/09:30am - - - - - S 54 59 29 32 - - -
04/09:00am - - - - - S 54 65 29 35 - - -
04/08:30am - - - - - S 57 67 31 36 - - -
04/08:00am - - - - - S 59 69 32 37 - - -
04/07:30am - - - - - S 61 72 33 39 - - -
04/07:00am - - - - - S 56 67 30 36 - - -
04/06:30am - - - - - S 57 72 31 39 - - -
04/06:00am - - - - - S 52 69 28 37 - - -
04/05:30am - - - - - S 56 74 30 40 - - -
04/05:00am - - - - - S 56 76 30 41 - - -
04/04:35am - - - - - S 54 72 29 39 - - -
04/04:30am - - - - - S 54 69 29 37 - - -
04/04:00am - - - - - S 46 67 25 36 - - -
04/03:34am - - - - - S 48 67 26 36 - - -
04/03:30am - - - - - S 50 67 27 36 - - -
04/03:16am - - - - - S 44 63 24 34 - - -
04/03:00am - - - - - S 46 59 25 32 - - -
04/02:59am - - - - - S 48 67 26 36 - - -
04/02:30am - - - - - S 54 70 29 38 - - -
04/02:02am - - - - - S 50 69 27 37 - - -
04/02:00am - - - - - S 52 69 28 37 - - -
04/01:38am - - - - - S 41 59 22 32 - - -
04/01:30am - - - - - S 52 63 28 34 - - -
04/01:00am - - - - - S 61 78 33 42 - - -
04/12:57am - - - - - S 59 78 32 42 - - -
04/12:30am - - - - - S 59 72 32 39 - - -
04/12:08am - - - - - S 65 85 35 46 - - -
04/12:00am - - - - - S 50 70 27 38 - - -
 
Date/Time
EST
Temp
°C
App
Temp
°C
Dew
Point
Rel
Hum
%
Delta-T
°C
Wind Press
QNH
hPa
Press
MSL
hPa
Rain
since 9 am
mm
Dir
 
Spd
km/h
Gust
km/h
Spd
kts
Gust
kts
03/11:55pm - - - - - S 50 72 27 39 - - -
03/11:49pm - - - - - S 50 72 27 39 - - -
03/11:41pm - - - - - S 59 78 32 42 - - -
03/11:30pm - - - - - S 65 74 35 40 - - -
03/11:11pm - - - - - S 56 89 30 48 - - -
03/11:09pm - - - - - S 50 89 27 48 - - -
03/11:07pm - - - - - S 44 70 24 38 - - -
03/11:00pm - - - - - S 33 52 18 28 - - -
03/10:30pm - - - - - S 39 57 21 31 - - -
03/10:12pm - - - - - SSW 30 50 16 27 - - -
03/10:00pm - - - - - SSW 28 44 15 24 - - -
03/09:30pm - - - - - SSW 30 48 16 26 - - -
03/09:09pm - - - - - SSW 28 46 15 25 - - -
03/09:00pm - - - - - S 32 48 17 26 - - -
03/08:30pm - - - - - S 44 69 24 37 - - -
03/08:05pm - - - - - SSW 37 70 20 38 - - -
03/08:04pm - - - - - SSW 35 70 19 38 - - -
03/08:03pm - - - - - SSW 33 70 18 38 - - -
03/08:00pm - - - - - SSW 32 48 17 26 - - -
03/07:30pm - - - - - SSW 28 46 15 25 - - -
03/07:24pm - - - - - SSW 28 46 15 25 - - -
03/07:00pm - - - - - WSW 22 37 12 20 - - -
03/06:30pm - - - - - W 17 26 9 14 - - -
03/06:00pm - - - - - WSW 13 26 7 14 - - -
03/05:30pm - - - - - SSW 24 44 13 24 - - -
03/05:00pm - - - - - WSW 20 30 11 16 - - -
03/04:30pm - - - - - SW 24 32 13 17 - - -
03/04:00pm - - - - - WSW 20 37 11 20 - - -
03/03:30pm - - - - - WSW 24 35 13 19 - - -
03/03:00pm - - - - - SW 22 35 12 19 - - -
03/02:30pm - - - - - SW 20 33 11 18 - - -
03/02:00pm - - - - - WSW 22 35 12 19 - - -
03/01:30pm - - - - - W 28 46 15 25 - - -
03/01:25pm - - - - - W 28 46 15 25 - - -
03/01:00pm - - - - - W 22 39 12 21 - - -
03/12:30pm - - - - - W 20 35 11 19 - - -
03/12:00pm - - - - - W 28 39 15 21 - - -
03/11:30am - - - - - W 20 35 11 19 - - -
03/11:00am - - - - - W 22 35 12 19 - - -
03/10:30am - - - - - W 20 35 11 19 - - -
03/10:00am - - - - - SSW 13 24 7 13 - - -
03/09:30am - - - - - S 15 19 8 10 - - -
03/09:00am - - - - - SW 9 15 5 8 - - -
03/08:30am - - - - - WSW 11 20 6 11 - - -
03/08:00am - - - - - NW 13 20 7 11 - - -
03/07:30am - - - - - WNW 9 13 5 7 - - -
03/07:00am - - - - - WNW 7 9 4 5 - - -
03/06:30am - - - - - N 7 13 4 7 - - -
03/06:00am - - - - - N 6 9 3 5 - - -
03/05:30am - - - - - NNW 11 13 6 7 - - -
03/05:00am - - - - - NW 9 11 5 6 - - -
03/04:30am - - - - - N 11 13 6 7 - - -
03/04:00am - - - - - NW 11 17 6 9 - - -
03/03:30am - - - - - WNW 6 7 3 4 - - -
03/03:00am - - - - - NW 9 13 5 7 - - -
03/02:30am - - - - - NNW 7 9 4 5 - - -
03/02:00am - - - - - NW 15 17 8 9 - - -
03/01:30am - - - - - NNW 13 15 7 8 - - -
03/01:00am - - - - - N 15 17 8 9 - - -
03/12:30am - - - - - N 20 28 11 15 - - -
03/12:00am - - - - - NNW 17 32 9 17 - - -
 
Date/Time
EST
Temp
°C
App
Temp
°C
Dew
Point
Rel
Hum
%
Delta-T
°C
Wind Press
QNH
hPa
Press
MSL
hPa
Rain
since 9 am
mm
Dir
 
Spd
km/h
Gust
km/h
Spd
kts
Gust
kts
02/11:30pm - - - - - N 17 22 9 12 - - -
02/11:00pm - - - - - N 17 24 9 13 - - -
02/10:30pm - - - - - N 20 26 11 14 - - -
02/10:00pm - - - - - N 17 20 9 11 - - -
02/09:30pm - - - - - N 17 19 9 10 - - -
02/09:00pm - - - - - N 17 20 9 11 - - -
02/08:30pm - - - - - N 15 17 8 9 - - -
02/08:00pm - - - - - N 15 19 8 10 - - -
02/07:30pm - - - - - N 15 19 8 10 - - -
02/07:00pm - - - - - NNE 17 22 9 12 - - -
02/06:30pm - - - - - NNE 17 20 9 11 - - -
02/06:00pm - - - - - NNE 20 28 11 15 - - -
02/05:30pm - - - - - NNE 11 15 6 8 - - -
02/05:00pm - - - - - NNE 13 20 7 11 - - -
02/04:30pm - - - - - NNE 13 19 7 10 - - -
02/04:00pm - - - - - NE 22 32 12 17 - - -
02/03:30pm - - - - - NE 19 28 10 15 - - -
02/03:00pm - - - - - NE 22 32 12 17 - - -
02/02:30pm - - - - - NE 20 28 11 15 - - -
02/02:00pm - - - - - NE 20 32 11 17 - - -
02/01:30pm - - - - - ENE 19 28 10 15 - - -
02/01:00pm - - - - - N 15 28 8 15 - - -
02/12:30pm - - - - - N 15 24 8 13 - - -
02/12:00pm - - - - - N 17 28 9 15 - - -
02/11:30am - - - - - N 13 19 7 10 - - -
02/11:00am - - - - - N 15 24 8 13 - - -
02/10:30am - - - - - N 19 30 10 16 - - -
02/10:00am - - - - - N 13 17 7 9 - - -
02/09:30am - - - - - N 11 17 6 9 - - -
02/09:00am - - - - - NW 7 11 4 6 - - -
02/08:30am - - - - - E 6 7 3 4 - - -
02/08:00am - - - - - WNW 7 11 4 6 - - -
02/07:30am - - - - - NW 13 17 7 9 - - -
02/07:00am - - - - - W 17 19 9 10 - - -

Other Formats:

Comma delimited format used in spreadsheet applications
http://www.bom.gov.au/fwo/IDN60801/IDN60801.95752.axf

JavaScript Object Notation format (JSON) in row-major order
http://www.bom.gov.au/fwo/IDN60801/IDN60801.95752.json